Logan Peak - 24 Hour Table
Date & TimeSolar
Radiation
(W/m²)
Wind
Speed
(mph)
Wind
Direction
(degrees)
Air
Temperature
(°F)
Relative
Humidity
(%)
Barometeric
Pressure
(inHg)
Max
Wind
Speed
(mph)
2023/02/04 20:00 0 21.5 186 22.0 62 29.85 26.8
2023/02/04 19:00 0 20.6 197 21.4 62 29.86 26.8
2023/02/04 18:00 16 18.5 207 21.0 68 29.84 23.7
2023/02/04 17:00 145 17.2 219 22.0 70 29.86 21.3
2023/02/04 16:00 343 18.2 238 22.5 72 29.84 27.7
2023/02/04 15:00 468 18.2 259 22.7 80 29.86 28.4
2023/02/04 14:00 563 20.3 260 22.4 77 29.84 29.3
2023/02/04 13:00 549 19.7 261 22.0 76 29.85 27.1
2023/02/04 12:00 472 19.8 258 21.5 78 29.89 28.2
2023/02/04 11:00 370 21.8 255 21.3 77 29.87 31.1
2023/02/04 10:00 293 24.6 250 21.8 71 29.86 35.3
2023/02/04 09:00 138 25.2 249 20.6 74 29.87 37.4
2023/02/04 08:00 9 21.5 255 17.7 78 29.84 29.8
2023/02/04 07:00 0 21.2 260 16.9 81 29.86 27.3
2023/02/04 06:00 0 20.7 263 17.2 87 29.85 28.2
2023/02/04 05:00 0 21.7 258 18.6 85 29.83 32.2
2023/02/04 04:00 0 21.6 257 19.4 84 29.85 37.1
2023/02/04 03:00 0 21.6 254 20.3 82 29.86 36.5
2023/02/04 02:00 0 24.6 247 21.1 87 29.84 35.6
2023/02/04 01:00 0 28.6 231 20.0 71 29.85 36.9
2023/02/04 00:00 0 31.1 221 19.0 72 29.87 38.7
2023/02/03 23:00 0 31.0 226 20.4 67 29.84 42.1
2023/02/03 22:00 0 26.8 227 21.6 64 29.87 38.5
2023/02/03 21:00 0 25.8 216 22.1 58 29.85 34.4